Terminal Aerodrome Forecast
Issued by NWS Wilmington, OH

Current Version | Previous Version | Text Only | Print | Product List | Glossary Off
Versions: 1 2 3 4 5 6 7 8 9 10 11 12 13 14 15 16 17 18 19 20 21 22 23 24 25 26 27

000
FTUS41 KILN 310500
TAFILN
TAF
KILN 310532Z 3106/0106 21006KT 6SM -SHRA BR SCT040 OVC050
     FM310700 20006KT 3SM -SHRA BR OVC035
     FM311000 19006KT 2SM -SHRA BR OVC012
     FM311300 20006KT 5SM -SHRA BR OVC007
     FM311600 20008KT P6SM VCTS BKN015CB
     FM311800 20010KT P6SM VCTS BKN025CB
     FM312300 18006KT P6SM BKN035
     FM010300 21006KT 4SM BR BKN025=

USA.gov is the U.S. government's official web portal to all federal, state and local government web resources and services.